TimeEDT,TemperatureF,Dew PointF,Humidity,Sea Level PressureIn,VisibilityMPH,Wind Direction,Wind SpeedMPH,Gust SpeedMPH,PrecipitationIn,Events,Conditions,WindDirDegrees,DateUTC
12:53 AM,46.9,44.1,90,30.08,6.0,Calm,Calm,-,N/A,,Clear,0,2013-09-30 04:53:00
1:19 AM,44.6,42.8,93,30.08,8.0,Calm,Calm,-,N/A,,Scattered Clouds,0,2013-09-30 05:19:00
1:53 AM,45.0,43.0,93,30.08,7.0,Calm,Calm,-,N/A,,Clear,0,2013-09-30 05:53:00
2:53 AM,44.1,42.1,93,30.07,7.0,Calm,Calm,-,N/A,,Clear,0,2013-09-30 06:53:00
3:48 AM,44.6,42.8,93,30.07,6.0,Calm,Calm,-,N/A,,Scattered Clouds,0,2013-09-30 07:48:00
3:53 AM,44.1,42.1,93,30.07,6.0,Calm,Calm,-,N/A,,Mostly Cloudy,0,2013-09-30 07:53:00
4:35 AM,46.4,44.6,93,30.08,1.8,Calm,Calm,-,N/A,,Overcast,0,2013-09-30 08:35:00
4:44 AM,46.4,46.4,100,30.08,1.0,Calm,Calm,-,N/A,,Overcast,0,2013-09-30 08:44:00
4:48 AM,46.4,46.4,100,30.08,2.0,Calm,Calm,-,N/A,,Overcast,0,2013-09-30 08:48:00
4:53 AM,46.9,46.0,97,30.08,3.0,Calm,Calm,-,N/A,,Overcast,0,2013-09-30 08:53:00
5:05 AM,48.2,46.4,93,30.08,1.8,Calm,Calm,-,N/A,,Overcast,0,2013-09-30 09:05:00
5:11 AM,48.2,46.4,93,30.08,0.8,Calm,Calm,-,N/A,,Overcast,0,2013-09-30 09:11:00
5:53 AM,48.0,46.9,96,30.09,0.2,Calm,Calm,-,N/A,Fog,Fog,0,2013-09-30 09:53:00
6:53 AM,48.0,46.9,96,30.10,0.2,Calm,Calm,-,N/A,Fog,Fog,0,2013-09-30 10:53:00
7:53 AM,48.9,48.0,97,30.10,0.2,Calm,Calm,-,N/A,Fog,Fog,0,2013-09-30 11:53:00
8:53 AM,48.9,48.9,100,30.11,0.2,Calm,Calm,-,N/A,Fog,Fog,0,2013-09-30 12:53:00
9:53 AM,50.0,50.0,100,30.11,0.2,Calm,Calm,-,N/A,Fog,Fog,0,2013-09-30 13:53:00
10:50 AM,53.6,51.8,94,30.10,1.2,Calm,Calm,-,N/A,,Overcast,0,2013-09-30 14:50:00
10:53 AM,53.1,52.0,96,30.10,2.0,Calm,Calm,-,N/A,,Mostly Cloudy,0,2013-09-30 14:53:00
11:01 AM,53.6,53.6,100,30.09,5.0,Calm,Calm,-,N/A,,Mostly Cloudy,0,2013-09-30 15:01:00
11:09 AM,55.4,53.6,94,30.09,7.0,Calm,Calm,-,N/A,,Scattered Clouds,0,2013-09-30 15:09:00
11:53 AM,64.0,54.0,70,30.07,10.0,Calm,Calm,-,N/A,,Clear,0,2013-09-30 15:53:00
12:53 PM,71.1,54.0,55,30.05,10.0,Variable,3.5,-,N/A,,Clear,0,2013-09-30 16:53:00
1:53 PM,73.0,53.1,49,30.02,10.0,Calm,Calm,-,N/A,,Clear,0,2013-09-30 17:53:00
2:53 PM,75.0,53.1,46,30.00,10.0,SE,6.9,-,N/A,,Clear,140,2013-09-30 18:53:00
3:53 PM,75.0,52.0,44,29.98,10.0,SE,9.2,-,N/A,,Clear,130,2013-09-30 19:53:00
4:53 PM,73.9,52.0,46,29.97,10.0,SE,5.8,-,N/A,,Clear,140,2013-09-30 20:53:00
5:53 PM,71.1,53.1,53,29.98,10.0,SSE,3.5,-,N/A,,Clear,150,2013-09-30 21:53:00
6:53 PM,60.1,55.9,86,29.99,10.0,Calm,Calm,-,N/A,,Clear,0,2013-09-30 22:53:00
7:53 PM,55.9,54.0,93,30.00,10.0,Calm,Calm,-,N/A,,Clear,0,2013-09-30 23:53:00
8:53 PM,53.1,51.1,93,30.02,10.0,Calm,Calm,-,N/A,,Partly Cloudy,0,2013-10-01 00:53:00
9:53 PM,52.0,51.1,97,30.02,8.0,Calm,Calm,-,N/A,,Partly Cloudy,0,2013-10-01 01:53:00
10:53 PM,51.1,48.9,92,30.02,8.0,Calm,Calm,-,N/A,,Clear,0,2013-10-01 02:53:00
11:53 PM,51.1,48.9,92,30.02,7.0,Calm,Calm,-,N/A,,Clear,0,2013-10-01 03:53:00